Screeton, Arkansas
Current Conditions -  °F | °C
As of 6:55 PM on Wednesday 22 Oct 2014 (Local Time) from KSGT Reporting Station
Few Clouds Few Clouds  
Wind Chill: 57°   Ceiling: Unl
Heat Index: 57°   Visibility: 10mi
Dew Point: 45°   Wind: 8mph
Humidity: 63%   Direction: 40°NE
Pressure: 30.17"   Gusts: NA
Location:  34.7916°N, 91.5681°W
Report Text: KSGT 222355Z AUTO 04007KT 10SM FEW003 14/07 A3017 RMK AO1 10210 20140 402100090 54000
Loading
Personal Weather Stations






























Interactive Weather Map
Tropical Storm Tracking
New forecast layout! Learn more

10-Day Weather Forecast

Advertisements
Track Severe Weather on mobile